createdAt,value
2023-01-29T00:02:25.175Z,4.22
2023-01-29T00:04:57.145Z,3.45
2023-01-29T00:07:28.357Z,2.97
2023-01-29T00:09:56.680Z,5.45
2023-01-29T00:12:24.916Z,4.15
2023-01-29T00:14:53.203Z,4.35
2023-01-29T00:17:21.521Z,4.18
2023-01-29T00:19:49.674Z,2.72
2023-01-29T00:22:17.948Z,4.72
2023-01-29T00:24:47.425Z,3.97
2023-01-29T00:27:15.612Z,4.75
2023-01-29T00:29:43.799Z,4.82
2023-01-29T00:32:12.145Z,1.83
2023-01-29T00:34:40.425Z,2.60
2023-01-29T00:37:09.126Z,2.60
2023-01-29T00:39:47.801Z,2.30
2023-01-29T00:42:35.191Z,2.25
2023-01-29T00:45:03.615Z,5.78
2023-01-29T00:47:33.618Z,2.22
2023-01-29T00:50:02.828Z,2.20
2023-01-29T00:52:31.397Z,2.22
2023-01-29T00:55:01.132Z,2.72
2023-01-29T00:57:33.078Z,1.45
2023-01-29T01:00:01.866Z,2.92
2023-01-29T01:02:47.504Z,3.92
2023-01-29T01:05:19.045Z,2.97
2023-01-29T01:07:48.610Z,4.10
2023-01-29T01:10:24.343Z,3.28
2023-01-29T01:12:58.005Z,3.42
2023-01-29T01:15:28.091Z,2.70
2023-01-29T01:17:58.225Z,2.67
2023-01-29T01:20:27.685Z,2.25
2023-01-29T01:22:56.404Z,2.67
2023-01-29T01:25:25.683Z,2.58
2023-01-29T01:27:56.171Z,2.83
2023-01-29T01:30:25.533Z,3.85
2023-01-29T01:32:53.726Z,2.78
2023-01-29T01:35:22.010Z,4.85
2023-01-29T01:37:50.539Z,4.03
2023-01-29T01:40:20.458Z,3.03
2023-01-29T01:42:50.393Z,3.10
2023-01-29T01:45:24.427Z,4.28
2023-01-29T01:47:57.338Z,2.45
2023-01-29T01:50:30.354Z,6.85
2023-01-29T01:53:03.773Z,3.70
2023-01-29T01:55:34.397Z,3.78
2023-01-29T01:58:08.464Z,4.72
2023-01-29T02:00:40.997Z,3.80
2023-01-29T02:03:29.326Z,4.68
2023-01-29T02:06:18.563Z,3.85
2023-01-29T02:09:10.932Z,5.18
2023-01-29T02:11:39.663Z,6.93
2023-01-29T02:14:08.379Z,5.18
2023-01-29T02:16:38.231Z,4.95
2023-01-29T02:19:15.404Z,5.15
2023-01-29T02:22:03.671Z,6.80
2023-01-29T02:25:10.041Z,4.68
2023-01-29T02:28:03.599Z,5.05
2023-01-29T02:30:37.634Z,6.07
2023-01-29T02:33:14.285Z,4.97
2023-01-29T02:35:46.348Z,5.25
2023-01-29T02:38:23.910Z,8.23
2023-01-29T02:40:56.775Z,4.57
2023-01-29T02:43:35.478Z,5.28
2023-01-29T02:46:12.314Z,5.32
2023-01-29T02:48:46.043Z,7.03
2023-01-29T02:51:20.660Z,4.50
2023-01-29T02:53:56.918Z,5.70
2023-01-29T02:56:31.707Z,5.55
2023-01-29T02:59:07.424Z,4.25
2023-01-29T03:01:42.109Z,4.45
2023-01-29T03:04:15.909Z,6.97
2023-01-29T03:09:23.447Z,5.22
2023-01-29T03:11:56.336Z,4.85
2023-01-29T03:14:52.618Z,5.10
2023-01-29T03:17:24.345Z,4.60
2023-01-29T03:19:52.784Z,3.28
2023-01-29T03:22:25.310Z,6.65
2023-01-29T03:25:15.508Z,4.68
2023-01-29T03:28:08.751Z,6.53
2023-01-29T03:31:04.581Z,5.10
2023-01-29T03:33:47.093Z,4.18
2023-01-29T03:36:19.736Z,4.30
2023-01-29T03:38:48.091Z,3.72
2023-01-29T03:41:26.414Z,4.03
2023-01-29T03:44:02.534Z,4.57
2023-01-29T03:46:37.784Z,5.10
2023-01-29T03:49:13.553Z,3.60
2023-01-29T03:51:52.404Z,2.05
2023-01-29T03:54:27.421Z,2.58
2023-01-29T03:57:02.111Z,5.00
2023-01-29T03:59:40.752Z,2.50
2023-01-29T04:02:33.861Z,2.58
2023-01-29T04:05:13.444Z,4.45
2023-01-29T04:07:55.429Z,3.08
2023-01-29T04:10:28.228Z,3.40
2023-01-29T04:13:01.311Z,4.32
2023-01-29T04:15:35.324Z,7.25
2023-01-29T04:18:05.169Z,6.13
2023-01-29T04:20:44.778Z,4.57
2023-01-29T04:23:22.594Z,7.85
2023-01-29T04:26:07.023Z,3.78
2023-01-29T04:28:52.224Z,3.83
2023-01-29T04:31:26.210Z,3.15
2023-01-29T04:34:09.460Z,2.65
2023-01-29T04:36:45.837Z,3.28
2023-01-29T04:39:21.331Z,2.67
2023-01-29T04:41:55.475Z,3.15
2023-01-29T04:44:34.228Z,3.53
2023-01-29T04:47:11.857Z,2.33
2023-01-29T04:49:48.655Z,2.95
2023-01-29T04:52:23.975Z,1.88
2023-01-29T04:55:02.586Z,3.13
2023-01-29T04:57:37.662Z,4.75
2023-01-29T05:00:12.788Z,1.60
2023-01-29T05:02:43.485Z,1.95
2023-01-29T05:05:16.727Z,3.58
2023-01-29T05:07:45.752Z,2.85
2023-01-29T05:10:16.063Z,1.50
2023-01-29T05:12:49.751Z,4.00
2023-01-29T05:15:23.783Z,5.10
2023-01-29T05:17:53.875Z,5.40
2023-01-29T05:20:23.546Z,3.67
2023-01-29T05:22:52.054Z,5.82
2023-01-29T05:25:24.304Z,4.45
2023-01-29T05:28:11.614Z,4.28
2023-01-29T05:30:41.093Z,4.03
2023-01-29T05:33:14.549Z,5.03
2023-01-29T05:35:44.645Z,4.32
2023-01-29T05:38:12.926Z,3.97
2023-01-29T05:40:41.770Z,3.05
2023-01-29T05:43:17.173Z,2.15
2023-01-29T05:45:52.615Z,3.72
2023-01-29T05:48:20.915Z,1.45
2023-01-29T05:50:50.427Z,3.72
2023-01-29T05:53:18.988Z,3.47
2023-01-29T05:55:47.558Z,2.15
2023-01-29T05:58:15.938Z,2.75
2023-01-29T06:00:44.180Z,3.63
2023-01-29T06:03:12.484Z,6.18
2023-01-29T06:05:41.079Z,3.83
2023-01-29T06:08:10.575Z,1.95
2023-01-29T06:10:38.673Z,4.22
2023-01-29T06:13:07.083Z,2.35
2023-01-29T06:15:35.264Z,5.05
2023-01-29T06:18:03.555Z,2.40
2023-01-29T06:20:31.698Z,2.63
2023-01-29T06:23:00.030Z,3.10
2023-01-29T06:25:29.506Z,2.42
2023-01-29T06:27:59.436Z,7.10
2023-01-29T06:30:28.473Z,6.30
2023-01-29T06:32:58.906Z,4.82
2023-01-29T06:35:27.412Z,5.40
2023-01-29T06:37:55.574Z,6.38
2023-01-29T06:40:23.887Z,4.07
2023-01-29T06:42:53.324Z,3.78
2023-01-29T06:45:21.587Z,3.95
2023-01-29T06:47:49.785Z,4.47
2023-01-29T06:50:18.669Z,2.78
2023-01-29T06:52:46.947Z,2.63
2023-01-29T06:55:15.335Z,3.88
2023-01-29T06:57:43.504Z,2.72
2023-01-29T07:00:14.451Z,2.47
2023-01-29T07:02:42.912Z,2.75
2023-01-29T07:05:11.077Z,1.50
2023-01-29T07:07:39.282Z,3.08
2023-01-29T07:10:08.465Z,3.45
2023-01-29T07:12:36.666Z,1.67
2023-01-29T07:15:05.205Z,2.08
2023-01-29T07:17:34.675Z,2.80
2023-01-29T07:20:02.783Z,2.47
2023-01-29T07:22:30.994Z,4.13
2023-01-29T07:24:59.336Z,6.03
2023-01-29T07:27:28.682Z,4.07
2023-01-29T07:29:56.874Z,7.40
2023-01-29T07:32:25.124Z,5.53
2023-01-29T07:34:54.586Z,3.53
2023-01-29T07:37:22.776Z,2.55
2023-01-29T07:39:51.356Z,3.95
2023-01-29T07:42:19.583Z,4.80
2023-01-29T07:44:47.696Z,5.43
2023-01-29T07:47:17.269Z,4.82
2023-01-29T07:49:45.494Z,4.07
2023-01-29T07:52:15.047Z,4.43
2023-01-29T07:54:43.315Z,4.30
2023-01-29T07:57:11.550Z,5.78
2023-01-29T07:59:39.716Z,3.90
2023-01-29T08:02:08.082Z,4.03
2023-01-29T08:04:36.438Z,3.47
2023-01-29T08:07:04.999Z,4.47
2023-01-29T08:09:34.505Z,2.33
2023-01-29T08:12:02.697Z,3.47
2023-01-29T08:14:30.895Z,3.90
2023-01-29T08:16:59.086Z,4.88
2023-01-29T08:19:27.214Z,3.55
2023-01-29T08:21:55.415Z,3.00
2023-01-29T08:24:28.253Z,3.58
2023-01-29T08:27:05.774Z,5.03
2023-01-29T08:29:33.983Z,3.88
2023-01-29T08:32:02.342Z,2.72
2023-01-29T08:34:30.509Z,5.60
2023-01-29T08:36:58.696Z,4.03
2023-01-29T08:39:26.876Z,2.92
2023-01-29T08:41:55.141Z,3.30
2023-01-29T08:44:24.636Z,7.82
2023-01-29T08:46:52.885Z,5.28
2023-01-29T08:49:21.052Z,4.75
2023-01-29T08:51:49.329Z,6.88
2023-01-29T08:54:17.500Z,3.90
2023-01-29T08:56:45.962Z,4.03
2023-01-29T08:59:14.361Z,6.07
2023-01-29T09:01:43.995Z,2.58
2023-01-29T09:04:12.153Z,3.80
2023-01-29T09:06:40.344Z,2.53
2023-01-29T09:09:08.704Z,4.00
2023-01-29T09:11:38.224Z,3.35
2023-01-29T09:14:06.383Z,1.20
2023-01-29T09:16:34.650Z,3.20
2023-01-29T09:19:04.195Z,1.77
2023-01-29T09:21:32.452Z,2.50
2023-01-29T09:24:00.605Z,2.45
2023-01-29T09:26:28.946Z,1.52
2023-01-29T09:28:57.414Z,1.67
2023-01-29T09:31:25.843Z,1.67
2023-01-29T09:33:54.155Z,2.10
2023-01-29T09:36:23.685Z,2.80
2023-01-29T09:38:51.896Z,3.55
2023-01-29T09:41:35.061Z,4.22
2023-01-29T09:44:06.381Z,2.58
2023-01-29T09:46:39.738Z,1.65
2023-01-29T09:49:16.035Z,0.90
2023-01-29T09:51:50.206Z,2.17
2023-01-29T09:54:24.321Z,2.35
2023-01-29T09:56:56.392Z,1.10
2023-01-29T09:59:27.888Z,1.35
2023-01-29T10:02:05.803Z,1.50
2023-01-29T10:05:04.885Z,0.75
2023-01-29T10:07:56.571Z,1.52
2023-01-29T10:10:36.931Z,1.67
2023-01-29T10:13:16.798Z,2.17
2023-01-29T10:15:59.536Z,2.10
2023-01-29T10:18:42.457Z,1.85
2023-01-29T10:21:28.409Z,1.42
2023-01-29T10:24:06.982Z,0.98
2023-01-29T10:26:37.948Z,1.13
2023-01-29T10:29:09.125Z,1.58
2023-01-29T10:31:40.928Z,2.78
2023-01-29T10:34:16.026Z,2.53
2023-01-29T10:36:46.258Z,1.38
2023-01-29T10:39:20.561Z,2.20
2023-01-29T10:41:59.318Z,1.75
2023-01-29T10:44:38.129Z,1.25
2023-01-29T10:47:22.515Z,1.35
2023-01-29T10:50:11.760Z,1.92
2023-01-29T10:52:50.705Z,1.30
2023-01-29T10:55:35.789Z,2.42
2023-01-29T10:58:15.293Z,1.90
2023-01-29T11:00:44.009Z,0.73
2023-01-29T11:06:13.984Z,1.85
2023-01-29T11:08:47.804Z,0.70
2023-01-29T11:11:22.053Z,1.00
2023-01-29T11:13:57.903Z,1.05
2023-01-29T11:16:28.234Z,1.38
2023-01-29T11:18:58.658Z,2.28
2023-01-29T11:21:28.701Z,1.63
2023-01-29T11:24:08.495Z,1.48
2023-01-29T11:26:41.601Z,1.48
2023-01-29T11:29:33.144Z,0.57
2023-01-29T11:32:05.052Z,0.60
2023-01-29T11:34:33.397Z,1.58
2023-01-29T11:37:03.750Z,1.60
2023-01-29T11:39:33.325Z,0.57
2023-01-29T11:42:04.646Z,1.35
2023-01-29T11:44:36.608Z,0.82
2023-01-29T11:47:26.775Z,1.08
2023-01-29T11:49:57.038Z,1.17
2023-01-29T11:52:27.264Z,1.15
2023-01-29T11:54:59.773Z,0.82
2023-01-29T11:57:34.242Z,0.73
2023-01-29T12:00:06.764Z,1.00
2023-01-29T12:02:39.902Z,1.58
2023-01-29T12:05:17.085Z,2.85
2023-01-29T12:07:47.427Z,1.50
2023-01-29T12:10:32.759Z,1.05
2023-01-29T12:13:22.769Z,2.17
2023-01-29T12:15:53.827Z,1.15
2023-01-29T12:18:30.946Z,1.38
2023-01-29T12:21:02.719Z,1.95
2023-01-29T12:23:42.300Z,2.10
2023-01-29T12:26:16.044Z,1.05
2023-01-29T12:31:30.165Z,0.63
2023-01-29T12:34:06.753Z,1.52
2023-01-29T12:36:43.067Z,0.88
2023-01-29T12:39:14.307Z,1.95
2023-01-29T12:41:46.516Z,2.53
2023-01-29T12:44:20.844Z,1.15
2023-01-29T12:46:54.715Z,1.60
2023-01-29T12:49:27.235Z,0.95
2023-01-29T12:52:02.065Z,1.85
2023-01-29T12:54:37.983Z,1.98
2023-01-29T12:57:12.221Z,1.02
2023-01-29T12:59:46.714Z,1.25
2023-01-29T13:02:25.021Z,3.38
2023-01-29T13:05:00.491Z,1.63
2023-01-29T13:07:32.974Z,1.77
2023-01-29T13:10:08.584Z,0.93
2023-01-29T13:12:38.464Z,1.30
2023-01-29T13:15:19.235Z,2.30
2023-01-29T13:17:53.720Z,0.60
2023-01-29T13:20:29.961Z,2.33
2023-01-29T13:23:05.210Z,1.17
2023-01-29T13:25:33.526Z,2.25
2023-01-29T13:28:02.055Z,1.33
2023-01-29T13:30:33.962Z,1.58
2023-01-29T13:33:12.111Z,1.25
2023-01-29T13:35:43.709Z,1.67
2023-01-29T13:38:28.052Z,1.15
2023-01-29T13:41:01.938Z,1.85
2023-01-29T13:43:35.403Z,1.65
2023-01-29T13:46:12.245Z,1.95
2023-01-29T13:48:44.079Z,2.90
2023-01-29T13:51:19.608Z,1.55
2023-01-29T13:53:56.496Z,3.03
2023-01-29T13:56:42.908Z,0.98
2023-01-29T13:59:24.019Z,1.33
2023-01-29T14:02:29.722Z,0.98
2023-01-29T14:05:34.074Z,2.15
2023-01-29T14:08:04.763Z,1.27
2023-01-29T14:10:34.935Z,1.27
2023-01-29T14:13:37.292Z,1.92
2023-01-29T14:16:28.800Z,1.23
2023-01-29T14:19:00.149Z,1.73
2023-01-29T14:21:31.927Z,0.85
2023-01-29T14:24:11.526Z,1.58
2023-01-29T14:26:46.128Z,0.43
2023-01-29T14:29:29.091Z,1.58
2023-01-29T14:32:15.216Z,1.75
2023-01-29T14:34:46.047Z,1.25
2023-01-29T14:37:23.277Z,0.52
2023-01-29T14:39:56.108Z,1.48
2023-01-29T14:42:27.744Z,0.85
2023-01-29T14:45:01.094Z,1.08
2023-01-29T14:47:55.191Z,1.02
2023-01-29T14:50:43.826Z,1.17
2023-01-29T14:53:18.069Z,0.75
2023-01-29T14:55:54.146Z,0.85
2023-01-29T14:58:30.085Z,0.93
2023-01-29T15:01:00.741Z,1.13
2023-01-29T15:03:38.271Z,0.95
2023-01-29T15:06:09.098Z,0.75
2023-01-29T15:08:44.791Z,0.50
2023-01-29T15:11:39.674Z,0.10
2023-01-29T15:14:18.954Z,0.38
2023-01-29T15:16:56.811Z,0.57
2023-01-29T15:19:29.675Z,1.73
2023-01-29T15:22:05.118Z,0.20
2023-01-29T15:24:33.432Z,0.60
2023-01-29T15:27:03.605Z,2.63
2023-01-29T15:29:32.123Z,0.77
2023-01-29T15:32:00.468Z,0.40
2023-01-29T15:34:28.846Z,0.68
2023-01-29T15:36:57.062Z,1.58
2023-01-29T15:39:27.830Z,0.85
2023-01-29T15:42:21.762Z,3.85
2023-01-29T15:44:50.158Z,1.98
2023-01-29T15:47:18.668Z,1.77
2023-01-29T15:49:49.114Z,1.35
2023-01-29T15:52:21.493Z,1.02
2023-01-29T15:54:50.191Z,0.73
2023-01-29T15:57:24.808Z,0.68
2023-01-29T15:59:55.803Z,1.35
2023-01-29T16:02:33.991Z,1.00
2023-01-29T16:05:02.691Z,1.50
2023-01-29T16:07:31.594Z,2.78
2023-01-29T16:10:00.990Z,0.50
2023-01-29T16:12:30.659Z,1.10
2023-01-29T16:14:59.078Z,0.95
2023-01-29T16:17:35.235Z,1.52
2023-01-29T16:20:05.570Z,2.45
2023-01-29T16:22:36.555Z,2.33
2023-01-29T16:25:06.596Z,1.30
2023-01-29T16:27:36.507Z,0.80
2023-01-29T16:30:07.596Z,1.15
2023-01-29T16:32:36.614Z,0.45
2023-01-29T16:35:05.196Z,2.65
2023-01-29T16:37:36.442Z,1.85
2023-01-29T16:40:14.962Z,0.85
2023-01-29T16:42:44.515Z,1.05
2023-01-29T16:45:28.244Z,0.60
2023-01-29T16:48:02.803Z,2.65
2023-01-29T16:50:46.210Z,3.45
2023-01-29T16:53:19.814Z,2.40
2023-01-29T16:55:50.281Z,2.25
2023-01-29T16:58:22.765Z,1.95
2023-01-29T17:00:56.296Z,2.13
2023-01-29T17:03:27.541Z,1.63
2023-01-29T17:05:56.290Z,1.48
2023-01-29T17:08:28.354Z,2.05
2023-01-29T17:10:56.861Z,1.30
2023-01-29T17:13:32.455Z,0.88
2023-01-29T17:16:03.425Z,1.00
2023-01-29T17:18:32.027Z,1.92
2023-01-29T17:21:00.719Z,1.58
2023-01-29T17:23:29.035Z,1.20
2023-01-29T17:25:57.387Z,0.52
2023-01-29T17:28:27.311Z,3.38
2023-01-29T17:31:05.851Z,1.67
2023-01-29T17:33:35.734Z,0.98
2023-01-29T17:36:04.044Z,1.73
2023-01-29T17:38:32.513Z,2.25
2023-01-29T17:41:05.283Z,1.50
2023-01-29T17:43:35.465Z,1.05
2023-01-29T17:46:03.716Z,2.78
2023-01-29T17:48:32.245Z,2.00
2023-01-29T17:51:03.739Z,2.00
2023-01-29T17:53:45.180Z,3.60
2023-01-29T17:56:17.475Z,4.25
2023-01-29T17:58:47.056Z,5.43
2023-01-29T18:01:15.505Z,6.65
2023-01-29T18:03:43.876Z,4.30
2023-01-29T18:06:17.433Z,6.32
2023-01-29T18:08:45.731Z,3.75
2023-01-29T18:11:14.151Z,3.13
2023-01-29T18:13:42.739Z,5.28
2023-01-29T18:16:12.286Z,2.05
2023-01-29T18:18:41.138Z,2.13
2023-01-29T18:21:09.408Z,4.60
2023-01-29T18:23:37.580Z,3.47
2023-01-29T18:26:07.607Z,2.08
2023-01-29T18:28:35.881Z,2.15
2023-01-29T18:31:04.767Z,3.13
2023-01-29T18:33:34.986Z,2.72
2023-01-29T18:36:05.067Z,2.25
2023-01-29T18:38:34.295Z,4.53
2023-01-29T18:41:06.215Z,2.03
2023-01-29T18:43:34.475Z,2.40
2023-01-29T18:46:02.794Z,1.90
2023-01-29T18:48:31.588Z,1.73
2023-01-29T18:51:01.177Z,2.53
2023-01-29T18:53:29.391Z,1.30
2023-01-29T18:55:59.199Z,3.58
2023-01-29T18:58:36.413Z,3.55
2023-01-29T19:01:09.662Z,1.50
2023-01-29T19:03:38.311Z,2.13
2023-01-29T19:06:10.378Z,2.03
2023-01-29T19:08:39.042Z,3.95
2023-01-29T19:11:09.044Z,2.35
2023-01-29T19:13:38.507Z,1.98
2023-01-29T19:16:09.204Z,1.65
2023-01-29T19:18:37.613Z,1.52
2023-01-29T19:21:11.634Z,2.53
2023-01-29T19:23:40.254Z,1.55
2023-01-29T19:26:08.633Z,1.55
2023-01-29T19:28:36.951Z,2.10
2023-01-29T19:31:05.480Z,2.17
2023-01-29T19:33:34.079Z,1.05
2023-01-29T19:36:02.819Z,2.08
2023-01-29T19:38:37.946Z,2.05
2023-01-29T19:41:06.721Z,1.42
2023-01-29T19:43:35.031Z,2.20
2023-01-29T19:46:03.791Z,1.27
2023-01-29T19:48:32.165Z,1.40
2023-01-29T19:51:02.307Z,3.92
2023-01-29T19:53:32.463Z,3.05
2023-01-29T19:56:02.260Z,1.30
2023-01-29T19:58:31.259Z,1.42
2023-01-29T20:01:01.681Z,1.27
2023-01-29T20:03:30.974Z,2.90
2023-01-29T20:06:03.930Z,1.52
2023-01-29T20:08:34.598Z,3.23
2023-01-29T20:11:03.104Z,1.50
2023-01-29T20:13:31.380Z,1.65
2023-01-29T20:16:03.085Z,2.15
2023-01-29T20:18:31.404Z,5.05
2023-01-29T20:20:59.972Z,2.40
2023-01-29T20:23:37.765Z,2.33
2023-01-29T20:26:09.873Z,1.20
2023-01-29T20:28:38.356Z,2.13
2023-01-29T20:31:08.282Z,1.35
2023-01-29T20:33:39.355Z,1.30
2023-01-29T20:36:10.129Z,1.73
2023-01-29T20:38:38.615Z,1.20
2023-01-29T20:41:10.386Z,2.47
2023-01-29T20:43:38.705Z,1.50
2023-01-29T20:46:07.151Z,1.85
2023-01-29T20:48:35.556Z,4.05
2023-01-29T20:51:06.747Z,10.48
2023-01-29T20:53:35.110Z,5.60
2023-01-29T20:56:04.621Z,3.30
2023-01-29T20:58:35.034Z,1.40
2023-01-29T21:01:07.814Z,4.20
2023-01-29T21:03:36.123Z,2.95
2023-01-29T21:06:04.830Z,2.83
2023-01-29T21:08:33.612Z,3.92
2023-01-29T21:11:01.950Z,1.88
2023-01-29T21:13:30.173Z,2.05
2023-01-29T21:15:59.728Z,1.90
2023-01-29T21:18:27.983Z,5.18
2023-01-29T21:20:56.608Z,0.95
2023-01-29T21:23:24.943Z,1.20
2023-01-29T21:25:53.203Z,3.55
2023-01-29T21:28:21.459Z,1.05
2023-01-29T21:30:49.760Z,2.50
2023-01-29T21:33:19.316Z,2.63
2023-01-29T21:35:47.571Z,1.67
2023-01-29T21:38:15.901Z,2.08
2023-01-29T21:40:44.075Z,6.80
2023-01-29T21:43:12.171Z,1.50
2023-01-29T21:45:41.494Z,2.80
2023-01-29T21:48:10.575Z,3.58
2023-01-29T21:50:40.282Z,1.13
2023-01-29T21:53:08.624Z,0.80
2023-01-29T21:55:36.846Z,1.10
2023-01-29T21:58:05.060Z,1.58
2023-01-29T22:00:33.327Z,4.53
2023-01-29T22:03:01.705Z,2.60
2023-01-29T22:05:30.304Z,1.05
2023-01-29T22:07:59.948Z,1.40
2023-01-29T22:10:28.656Z,1.70
2023-01-29T22:12:57.901Z,0.75
2023-01-29T22:15:26.053Z,1.45
2023-01-29T22:17:54.515Z,0.98
2023-01-29T22:20:29.795Z,1.02
2023-01-29T22:23:00.804Z,2.92
2023-01-29T22:25:29.256Z,1.10
2023-01-29T22:27:57.356Z,0.90
2023-01-29T22:30:25.908Z,0.77
2023-01-29T22:32:54.123Z,0.82
2023-01-29T22:35:22.552Z,0.65
2023-01-29T22:37:50.785Z,0.70
2023-01-29T22:40:20.780Z,1.73
2023-01-29T22:42:49.202Z,2.55
2023-01-29T22:45:17.460Z,2.00
2023-01-29T22:47:45.689Z,3.17
2023-01-29T22:50:14.847Z,0.70
2023-01-29T22:52:54.043Z,0.80
2023-01-29T22:55:23.763Z,0.95
2023-01-29T22:57:53.528Z,1.30
2023-01-29T23:00:22.300Z,1.52
2023-01-29T23:02:50.790Z,0.98
2023-01-29T23:05:19.279Z,1.58
2023-01-29T23:07:47.464Z,4.53
2023-01-29T23:10:16.676Z,1.67
2023-01-29T23:12:46.361Z,1.15
2023-01-29T23:15:14.583Z,1.83
2023-01-29T23:17:42.733Z,1.85
2023-01-29T23:20:12.129Z,2.05
2023-01-29T23:22:40.324Z,2.22
2023-01-29T23:25:09.108Z,1.90
2023-01-29T23:27:36.469Z,1.80
2023-01-29T23:30:07.005Z,4.75
2023-01-29T23:32:35.553Z,2.33
2023-01-29T23:35:03.853Z,1.77
2023-01-29T23:37:32.106Z,2.05
2023-01-29T23:40:00.269Z,1.88
2023-01-29T23:42:28.522Z,2.33
2023-01-29T23:44:56.702Z,2.28
2023-01-29T23:47:26.209Z,2.58
2023-01-29T23:49:54.397Z,2.55
2023-01-29T23:52:22.594Z,1.25
2023-01-29T23:54:50.808Z,2.40
2023-01-29T23:57:19.066Z,2.03
2023-01-29T23:59:47.266Z,2.05
